createdAt,value
2019-03-06T00:01:21.700Z,18.07
2019-03-06T00:03:51.277Z,16.07
2019-03-06T00:06:20.855Z,17.15
2019-03-06T00:09:03.829Z,18.27
2019-03-06T00:11:39.530Z,19.77
2019-03-06T00:14:16.149Z,16.23
2019-03-06T00:16:51.765Z,18.17
2019-03-06T00:19:27.930Z,16.35
2019-03-06T00:22:04.074Z,16.27
2019-03-06T00:24:40.182Z,16.73
2019-03-06T00:27:16.644Z,17.15
2019-03-06T00:29:46.089Z,16.10
2019-03-06T00:32:15.603Z,15.95
2019-03-06T00:34:51.233Z,16.87
2019-03-06T00:37:20.679Z,14.38
2019-03-06T00:39:58.543Z,14.53
2019-03-06T00:42:35.082Z,17.12
2019-03-06T00:45:21.172Z,13.72
2019-03-06T00:47:50.621Z,14.07
2019-03-06T00:50:27.418Z,13.13
2019-03-06T00:52:56.955Z,15.35
2019-03-06T00:55:33.104Z,14.80
2019-03-06T00:58:08.737Z,16.05
2019-03-06T01:00:38.342Z,15.20
2019-03-06T01:03:14.217Z,19.70
2019-03-06T01:05:43.736Z,18.87
2019-03-06T01:08:25.650Z,16.70
2019-03-06T01:10:55.113Z,16.17
2019-03-06T01:13:31.619Z,15.05
2019-03-06T01:16:01.129Z,16.17
2019-03-06T01:18:36.881Z,17.52
2019-03-06T01:21:19.392Z,19.05
2019-03-06T01:23:55.892Z,16.35
2019-03-06T01:26:25.470Z,17.45
2019-03-06T01:29:01.575Z,22.52
2019-03-06T01:31:31.083Z,22.42
2019-03-06T01:34:20.776Z,23.60
2019-03-06T01:37:04.509Z,21.90
2019-03-06T01:42:27.505Z,17.48
2019-03-06T01:45:11.052Z,20.12
2019-03-06T01:47:40.560Z,19.92
2019-03-06T01:50:11.815Z,19.60
2019-03-06T01:52:48.038Z,21.77
2019-03-06T01:55:24.724Z,16.70
2019-03-06T01:58:01.093Z,16.27
2019-03-06T02:00:30.745Z,17.95
2019-03-06T02:03:06.706Z,18.25
2019-03-06T02:05:43.111Z,18.37
2019-03-06T02:08:13.590Z,18.45
2019-03-06T02:10:49.551Z,20.52
2019-03-06T02:13:22.941Z,17.90
2019-03-06T02:18:28.599Z,19.32
2019-03-06T02:21:04.921Z,21.20
2019-03-06T02:23:34.373Z,21.40
2019-03-06T02:26:10.064Z,20.30
2019-03-06T02:28:39.594Z,20.95
2019-03-06T02:31:09.356Z,21.23
2019-03-06T02:33:45.763Z,21.57
2019-03-06T02:36:15.212Z,22.62
2019-03-06T02:38:51.747Z,21.68
2019-03-06T02:41:21.393Z,24.27
2019-03-06T02:43:57.939Z,22.98
2019-03-06T02:46:34.152Z,18.67
2019-03-06T02:49:10.755Z,19.67
2019-03-06T02:51:47.219Z,23.10
2019-03-06T02:54:23.330Z,20.48
2019-03-06T02:56:59.520Z,22.07
2019-03-06T02:59:44.561Z,22.60
2019-03-06T03:02:18.620Z,25.52
2019-03-06T03:05:02.238Z,25.50
2019-03-06T03:07:31.748Z,26.90
2019-03-06T03:10:01.183Z,26.62
2019-03-06T03:12:37.216Z,23.52
2019-03-06T03:15:16.874Z,26.27
2019-03-06T03:17:46.300Z,18.40
2019-03-06T03:20:23.066Z,24.37
2019-03-06T03:23:06.235Z,34.43
2019-03-06T03:25:42.361Z,23.73
2019-03-06T03:28:11.945Z,19.27
2019-03-06T03:30:47.792Z,19.37
2019-03-06T03:33:17.205Z,18.02
2019-03-06T03:35:53.179Z,18.80
2019-03-06T03:38:29.341Z,22.60
2019-03-06T03:41:05.688Z,19.37
2019-03-06T03:43:42.379Z,21.45
2019-03-06T03:46:17.996Z,37.30
2019-03-06T03:48:54.115Z,36.73
2019-03-06T03:51:23.629Z,29.12
2019-03-06T03:53:59.433Z,29.40
2019-03-06T03:56:29.014Z,28.87
2019-03-06T03:59:05.437Z,23.52
2019-03-06T04:01:41.914Z,23.18
2019-03-06T04:04:11.499Z,24.72
2019-03-06T04:06:47.651Z,18.25
2019-03-06T04:09:17.631Z,23.32
2019-03-06T04:11:47.061Z,27.82
2019-03-06T04:14:23.677Z,35.25
2019-03-06T04:16:59.634Z,32.45
2019-03-06T04:19:36.146Z,19.75
2019-03-06T04:22:18.749Z,20.32
2019-03-06T04:25:02.175Z,22.05
2019-03-06T04:27:31.625Z,19.75
2019-03-06T04:30:07.963Z,19.40
2019-03-06T04:32:37.440Z,20.05
2019-03-06T04:35:07.793Z,20.10
2019-03-06T04:37:44.094Z,21.07
2019-03-06T04:40:17.108Z,21.35
2019-03-06T04:42:52.738Z,20.30
2019-03-06T04:45:22.171Z,20.62
2019-03-06T04:47:58.146Z,24.00
2019-03-06T04:50:27.773Z,25.55
2019-03-06T04:53:04.127Z,24.05
2019-03-06T04:55:33.704Z,22.07
2019-03-06T04:58:03.175Z,26.62
2019-03-06T05:00:38.813Z,24.43
2019-03-06T05:03:15.413Z,29.05
2019-03-06T05:05:51.970Z,25.82
2019-03-06T05:08:21.482Z,28.98
2019-03-06T05:11:04.609Z,27.48
2019-03-06T05:13:40.954Z,29.02
2019-03-06T05:16:17.258Z,26.48
2019-03-06T05:18:48.340Z,32.13
2019-03-06T05:21:24.955Z,25.27
2019-03-06T05:24:00.810Z,28.45
2019-03-06T05:26:36.601Z,27.42
2019-03-06T05:29:06.056Z,29.35
2019-03-06T05:31:42.053Z,26.37
2019-03-06T05:34:17.794Z,28.83
2019-03-06T05:37:00.719Z,29.85
2019-03-06T05:39:36.631Z,30.90
2019-03-06T05:42:06.139Z,29.15
2019-03-06T05:44:42.544Z,26.93
2019-03-06T05:47:18.105Z,30.15
2019-03-06T05:49:53.755Z,25.70
2019-03-06T05:52:23.258Z,32.42
2019-03-06T05:54:58.918Z,29.40
2019-03-06T05:57:28.411Z,30.48
2019-03-06T05:59:57.851Z,32.45
2019-03-06T06:02:34.115Z,35.10
2019-03-06T06:05:10.482Z,42.40
2019-03-06T06:07:46.801Z,38.88
2019-03-06T06:10:16.974Z,40.12
2019-03-06T06:12:59.043Z,33.15
2019-03-06T06:15:35.512Z,35.55
2019-03-06T06:18:05.167Z,33.08
2019-03-06T06:20:41.247Z,28.92
2019-03-06T06:23:48.689Z,31.95
2019-03-06T06:26:24.203Z,33.00
2019-03-06T06:29:00.691Z,35.88
2019-03-06T06:31:30.130Z,35.83
2019-03-06T06:34:06.134Z,37.75
2019-03-06T06:36:35.581Z,43.30
2019-03-06T06:39:08.439Z,45.12
2019-03-06T06:41:50.978Z,53.02
2019-03-06T06:44:20.414Z,50.33
2019-03-06T06:46:56.556Z,50.75
2019-03-06T06:49:26.010Z,52.75
2019-03-06T06:52:18.202Z,53.90
2019-03-06T06:55:10.070Z,55.23
2019-03-06T06:58:11.685Z,55.40
2019-03-06T07:01:02.835Z,61.53
2019-03-06T07:04:49.594Z,66.47
2019-03-06T07:07:23.481Z,55.12
2019-03-06T07:10:00.767Z,58.00
2019-03-06T07:12:47.192Z,49.58
2019-03-06T07:15:24.197Z,48.02
2019-03-06T07:18:02.368Z,38.73
2019-03-06T07:20:45.425Z,37.85
2019-03-06T07:23:32.429Z,39.67
2019-03-06T07:26:20.277Z,40.33
2019-03-06T07:29:10.606Z,42.58
2019-03-06T07:32:00.033Z,37.25
2019-03-06T07:34:49.289Z,38.75
2019-03-06T07:37:28.928Z,39.20
2019-03-06T07:40:04.847Z,38.08
2019-03-06T07:42:51.112Z,40.48
2019-03-06T07:45:40.485Z,40.33
2019-03-06T07:48:24.312Z,38.25
2019-03-06T07:50:55.480Z,39.75
2019-03-06T07:54:04.675Z,37.63
2019-03-06T07:56:36.570Z,34.30
2019-03-06T07:59:13.007Z,32.48
2019-03-06T08:02:10.962Z,33.67
2019-03-06T08:04:49.086Z,33.78
2019-03-06T08:07:18.677Z,36.20
2019-03-06T08:09:48.262Z,34.65
2019-03-06T08:12:26.202Z,38.30
2019-03-06T08:15:04.129Z,30.95
2019-03-06T08:17:35.285Z,34.80
2019-03-06T08:20:32.573Z,28.35
2019-03-06T08:23:12.931Z,30.55
2019-03-06T08:26:01.521Z,30.57
2019-03-06T08:28:37.788Z,25.95
2019-03-06T08:31:12.090Z,25.80
2019-03-06T08:33:48.691Z,26.95
2019-03-06T08:36:24.722Z,27.77
2019-03-06T08:38:54.256Z,27.87
2019-03-06T08:41:23.708Z,24.32
2019-03-06T08:44:00.297Z,23.10
2019-03-06T08:46:43.286Z,24.20
2019-03-06T08:49:38.750Z,27.17
2019-03-06T08:52:24.734Z,32.30
2019-03-06T08:55:08.367Z,27.73
2019-03-06T08:57:42.433Z,28.05
2019-03-06T09:00:38.866Z,31.45
2019-03-06T09:03:13.174Z,26.00
2019-03-06T09:06:09.268Z,25.62
2019-03-06T09:08:55.813Z,23.85
2019-03-06T09:11:27.040Z,26.10
2019-03-06T09:14:10.643Z,23.57
2019-03-06T09:16:48.045Z,31.40
2019-03-06T09:19:28.134Z,31.20
2019-03-06T09:22:21.200Z,29.75
2019-03-06T09:25:07.654Z,31.47
2019-03-06T09:28:01.195Z,33.20
2019-03-06T09:30:38.716Z,39.83
2019-03-06T09:33:19.164Z,34.55
2019-03-06T09:36:11.350Z,35.60
2019-03-06T09:38:45.087Z,42.95
2019-03-06T09:41:34.445Z,39.38
2019-03-06T09:44:11.985Z,39.45
2019-03-06T09:47:05.265Z,44.90
2019-03-06T09:49:39.176Z,45.85
2019-03-06T09:52:16.704Z,42.98
2019-03-06T09:55:02.696Z,55.05
2019-03-06T09:57:40.747Z,53.95
2019-03-06T10:00:38.778Z,44.03
2019-03-06T10:03:16.385Z,42.10
2019-03-06T10:05:50.243Z,33.95
2019-03-06T10:08:39.786Z,52.65
2019-03-06T10:11:17.128Z,67.12
2019-03-06T10:13:55.645Z,28.07
2019-03-06T10:16:48.469Z,27.55
2019-03-06T10:19:18.764Z,30.60
2019-03-06T10:21:48.276Z,29.77
2019-03-06T10:24:24.796Z,39.83
2019-03-06T10:27:01.227Z,41.10
2019-03-06T10:29:37.299Z,28.27
2019-03-06T10:32:13.544Z,47.88
2019-03-06T10:34:49.725Z,29.60
2019-03-06T10:37:19.246Z,29.37
2019-03-06T10:39:55.789Z,27.40
2019-03-06T10:42:32.166Z,34.15
2019-03-06T10:45:01.618Z,35.08
2019-03-06T10:47:37.531Z,27.70
2019-03-06T10:50:11.997Z,30.55
2019-03-06T10:52:47.613Z,25.10
2019-03-06T10:55:19.669Z,27.67
2019-03-06T10:57:56.342Z,27.40
2019-03-06T11:00:35.937Z,23.35
2019-03-06T11:03:17.749Z,23.83
2019-03-06T11:05:48.484Z,21.87
2019-03-06T11:08:25.814Z,21.87
2019-03-06T11:10:55.584Z,20.30
2019-03-06T11:13:31.283Z,29.65
2019-03-06T11:16:07.773Z,27.58
2019-03-06T11:18:37.441Z,27.40
2019-03-06T11:21:15.868Z,30.65
2019-03-06T11:23:51.899Z,27.25
2019-03-06T11:26:21.555Z,26.85
2019-03-06T11:29:04.769Z,25.37
2019-03-06T11:31:48.467Z,27.87
2019-03-06T11:36:47.303Z,27.67
2019-03-06T11:39:25.252Z,36.83
2019-03-06T11:42:01.362Z,27.85
2019-03-06T11:44:30.947Z,28.20
2019-03-06T11:47:06.708Z,25.72
2019-03-06T11:49:36.362Z,26.77
2019-03-06T11:52:18.896Z,28.77
2019-03-06T11:54:48.331Z,26.12
2019-03-06T11:57:26.196Z,25.43
2019-03-06T11:59:55.717Z,27.22
2019-03-06T12:02:31.581Z,29.60
2019-03-06T12:05:01.442Z,29.10
2019-03-06T12:07:37.270Z,29.18
2019-03-06T12:10:10.326Z,27.62
2019-03-06T12:12:47.323Z,26.52
2019-03-06T12:15:17.321Z,25.75
2019-03-06T12:17:53.636Z,30.45
2019-03-06T12:20:30.023Z,24.98
2019-03-06T12:23:06.425Z,23.25
2019-03-06T12:25:36.883Z,23.95
2019-03-06T12:28:15.341Z,27.00
2019-03-06T12:30:57.914Z,22.75
2019-03-06T12:33:35.283Z,23.30
2019-03-06T12:36:05.720Z,25.80
2019-03-06T12:38:41.683Z,27.55
2019-03-06T12:41:24.350Z,27.07
2019-03-06T12:43:53.865Z,22.62
2019-03-06T12:46:30.140Z,25.25
2019-03-06T12:49:06.172Z,32.63
2019-03-06T12:51:35.848Z,28.15
2019-03-06T12:54:05.898Z,29.32
2019-03-06T12:56:42.342Z,24.77
2019-03-06T12:59:11.942Z,27.62
2019-03-06T13:01:41.522Z,24.05
2019-03-06T13:07:11.736Z,28.62
2019-03-06T13:09:41.203Z,26.70
2019-03-06T13:12:17.299Z,30.20
2019-03-06T13:14:52.965Z,24.92
2019-03-06T13:17:29.494Z,35.28
2019-03-06T13:20:06.062Z,27.25
2019-03-06T13:22:35.878Z,23.00
2019-03-06T13:25:14.455Z,23.02
2019-03-06T13:27:54.787Z,23.83
2019-03-06T13:30:35.399Z,25.30
2019-03-06T13:33:22.291Z,20.53
2019-03-06T13:35:58.796Z,21.85
2019-03-06T13:38:35.555Z,19.07
2019-03-06T13:41:12.197Z,23.87
2019-03-06T13:43:47.778Z,21.68
2019-03-06T13:46:17.503Z,21.80
2019-03-06T13:48:53.766Z,21.93
2019-03-06T13:51:23.458Z,21.85
2019-03-06T13:53:59.536Z,19.95
2019-03-06T13:56:29.053Z,17.02
2019-03-06T13:59:05.121Z,21.77
2019-03-06T14:01:35.534Z,33.58
2019-03-06T14:04:11.522Z,22.50
2019-03-06T14:06:40.986Z,20.70
2019-03-06T14:09:12.102Z,19.42
2019-03-06T14:11:48.639Z,17.45
2019-03-06T14:14:18.152Z,19.45
2019-03-06T14:16:56.221Z,19.95
2019-03-06T14:19:27.504Z,17.73
2019-03-06T14:22:10.557Z,22.10
2019-03-06T14:24:40.150Z,19.97
2019-03-06T14:27:16.567Z,24.52
2019-03-06T14:29:46.225Z,17.32
2019-03-06T14:32:29.652Z,20.75
2019-03-06T14:35:06.637Z,22.50
2019-03-06T14:37:42.870Z,20.32
2019-03-06T14:40:39.896Z,21.57
2019-03-06T14:43:10.060Z,16.95
2019-03-06T14:45:46.879Z,21.65
2019-03-06T14:48:23.862Z,22.20
2019-03-06T14:51:07.166Z,22.05
2019-03-06T14:53:43.905Z,17.95
2019-03-06T14:56:20.253Z,21.80
2019-03-06T14:58:55.971Z,21.37
2019-03-06T15:01:31.725Z,21.50
2019-03-06T15:04:01.251Z,20.32
2019-03-06T15:06:30.859Z,23.05
2019-03-06T15:09:07.495Z,23.80
2019-03-06T15:11:37.095Z,27.65
2019-03-06T15:14:12.977Z,25.55
2019-03-06T15:16:42.773Z,26.73
2019-03-06T15:19:12.332Z,24.40
2019-03-06T15:21:48.890Z,26.17
2019-03-06T15:24:18.500Z,31.80
2019-03-06T15:26:54.589Z,30.12
2019-03-06T15:29:30.931Z,31.75
2019-03-06T15:32:13.210Z,33.23
2019-03-06T15:34:49.914Z,29.85
2019-03-06T15:37:19.641Z,33.08
2019-03-06T15:39:49.336Z,35.48
2019-03-06T15:42:25.376Z,33.25
2019-03-06T15:44:54.906Z,26.48
2019-03-06T15:47:33.821Z,28.35
2019-03-06T15:50:15.912Z,31.70
2019-03-06T15:53:05.619Z,30.75
2019-03-06T15:55:48.628Z,31.95
2019-03-06T15:58:18.280Z,25.40
2019-03-06T16:00:49.381Z,32.48
2019-03-06T16:03:32.615Z,29.25
2019-03-06T16:06:08.656Z,43.35
2019-03-06T16:08:45.320Z,33.88
2019-03-06T16:11:14.997Z,34.00
2019-03-06T16:13:51.220Z,57.65
2019-03-06T16:16:27.808Z,56.83
2019-03-06T16:19:04.414Z,35.25
2019-03-06T16:21:41.185Z,31.23
2019-03-06T16:24:24.553Z,44.77
2019-03-06T16:26:54.639Z,36.85
2019-03-06T16:29:30.783Z,29.45
2019-03-06T16:32:06.515Z,37.90
2019-03-06T16:34:49.643Z,38.30
2019-03-06T16:37:19.312Z,33.00
2019-03-06T16:39:56.088Z,39.13
2019-03-06T16:42:25.616Z,34.83
2019-03-06T16:45:01.760Z,37.83
2019-03-06T16:47:37.664Z,39.40
2019-03-06T16:50:15.901Z,33.90
2019-03-06T16:52:50.578Z,39.53
2019-03-06T16:55:28.549Z,73.62
2019-03-06T16:58:05.445Z,50.60
2019-03-06T17:00:43.253Z,40.23
2019-03-06T17:03:26.208Z,44.08
2019-03-06T17:05:55.825Z,39.27
2019-03-06T17:08:32.239Z,41.48
2019-03-06T17:11:02.076Z,42.55
2019-03-06T17:13:45.073Z,53.45
2019-03-06T17:16:14.658Z,52.43
2019-03-06T17:18:50.743Z,53.17
2019-03-06T17:21:21.793Z,51.30
2019-03-06T17:23:57.491Z,52.30
2019-03-06T17:26:27.087Z,46.73
2019-03-06T17:29:03.706Z,49.67
2019-03-06T17:31:33.383Z,54.33
2019-03-06T17:34:12.676Z,51.88
2019-03-06T17:36:55.553Z,56.53
2019-03-06T17:39:27.912Z,57.27
2019-03-06T17:41:58.982Z,59.35
2019-03-06T17:44:35.643Z,51.88
2019-03-06T17:47:05.496Z,52.90
2019-03-06T17:49:41.649Z,51.10
2019-03-06T17:52:17.723Z,51.68
2019-03-06T17:54:53.445Z,55.12
2019-03-06T17:57:30.274Z,52.53
2019-03-06T18:00:06.486Z,52.67
2019-03-06T18:02:44.366Z,56.70
2019-03-06T18:05:21.089Z,59.48
2019-03-06T18:07:56.836Z,54.08
2019-03-06T18:10:26.901Z,52.88
2019-03-06T18:13:03.359Z,55.60
2019-03-06T18:15:32.883Z,53.65
2019-03-06T18:18:02.415Z,55.00
2019-03-06T18:20:38.389Z,54.88
2019-03-06T18:23:08.049Z,52.40
2019-03-06T18:25:37.585Z,54.10
2019-03-06T18:28:20.833Z,51.02
2019-03-06T18:30:51.349Z,57.55
2019-03-06T18:33:27.446Z,54.53
2019-03-06T18:36:10.154Z,58.63
2019-03-06T18:38:46.531Z,56.30
2019-03-06T18:41:16.209Z,56.88
2019-03-06T18:43:52.917Z,54.70
2019-03-06T18:46:22.612Z,45.65
2019-03-06T18:48:59.127Z,51.02
2019-03-06T18:51:28.998Z,49.77
2019-03-06T18:54:05.117Z,50.67
2019-03-06T18:56:42.732Z,49.83
2019-03-06T18:59:19.269Z,51.68
2019-03-06T19:01:50.145Z,53.98
2019-03-06T19:04:26.611Z,56.33
2019-03-06T19:06:56.229Z,54.30
2019-03-06T19:09:32.903Z,52.23
2019-03-06T19:12:04.609Z,47.53
2019-03-06T19:14:42.388Z,49.38
2019-03-06T19:17:11.783Z,48.68
2019-03-06T19:19:47.640Z,45.98
2019-03-06T19:22:24.325Z,46.40
2019-03-06T19:24:53.920Z,49.30
2019-03-06T19:27:29.696Z,53.83
2019-03-06T19:30:23.754Z,50.20
2019-03-06T19:35:36.764Z,48.02
2019-03-06T19:38:20.403Z,50.88
2019-03-06T19:40:50.025Z,45.12
2019-03-06T19:43:25.753Z,45.80
2019-03-06T19:45:55.275Z,45.75
2019-03-06T19:48:31.641Z,53.78
2019-03-06T19:51:08.190Z,51.58
2019-03-06T19:53:37.992Z,50.58
2019-03-06T19:56:13.989Z,50.05
2019-03-06T19:58:50.576Z,49.08
2019-03-06T20:01:27.116Z,49.13
2019-03-06T20:03:56.711Z,46.85
2019-03-06T20:06:33.343Z,46.20
2019-03-06T20:09:07.539Z,45.90
2019-03-06T20:11:44.906Z,45.15
2019-03-06T20:14:14.625Z,49.10
2019-03-06T20:16:44.226Z,43.83
2019-03-06T20:19:21.149Z,45.63
2019-03-06T20:21:58.060Z,44.20
2019-03-06T20:24:28.020Z,48.13
2019-03-06T20:27:05.415Z,60.60
2019-03-06T20:29:41.799Z,49.88
2019-03-06T20:32:11.560Z,44.98
2019-03-06T20:34:47.188Z,41.13
2019-03-06T20:37:31.169Z,45.90
2019-03-06T20:40:17.426Z,49.33
2019-03-06T20:42:54.843Z,48.38
2019-03-06T20:45:24.656Z,50.95
2019-03-06T20:48:06.423Z,69.17
2019-03-06T20:50:43.211Z,47.90
2019-03-06T20:53:12.884Z,48.33
2019-03-06T20:55:49.530Z,47.90
2019-03-06T20:58:19.075Z,49.03
2019-03-06T21:00:55.571Z,47.65
2019-03-06T21:03:32.149Z,51.42
2019-03-06T21:06:01.774Z,45.88
2019-03-06T21:08:31.229Z,49.15
2019-03-06T21:11:07.462Z,43.87
2019-03-06T21:13:36.919Z,46.15
2019-03-06T21:16:13.303Z,50.35
2019-03-06T21:18:43.726Z,52.73
2019-03-06T21:21:20.316Z,49.00
2019-03-06T21:23:56.932Z,53.05
2019-03-06T21:26:26.462Z,52.48
2019-03-06T21:29:02.796Z,51.68
2019-03-06T21:31:38.995Z,52.67
2019-03-06T21:34:08.908Z,54.20
2019-03-06T21:36:44.796Z,51.05
2019-03-06T21:39:29.334Z,58.45
2019-03-06T21:42:05.586Z,52.08
2019-03-06T21:44:35.203Z,52.10
2019-03-06T21:47:11.782Z,53.00
2019-03-06T21:49:53.919Z,55.70
2019-03-06T21:52:23.384Z,51.70
2019-03-06T21:54:59.655Z,56.40
2019-03-06T21:57:29.113Z,51.48
2019-03-06T22:00:05.122Z,52.35
2019-03-06T22:02:34.567Z,55.48
2019-03-06T22:05:04.833Z,52.98
2019-03-06T22:07:40.552Z,54.13
2019-03-06T22:10:23.762Z,53.25
2019-03-06T22:12:53.213Z,54.15
2019-03-06T22:15:31.008Z,51.48
2019-03-06T22:18:06.725Z,55.95
2019-03-06T22:20:43.111Z,53.17
2019-03-06T22:23:19.442Z,56.15
2019-03-06T22:25:55.437Z,50.35
2019-03-06T22:28:24.943Z,52.60
2019-03-06T22:30:54.460Z,54.48
2019-03-06T22:33:30.343Z,56.77
2019-03-06T22:36:06.621Z,51.98
2019-03-06T22:38:42.611Z,53.73
2019-03-06T22:41:24.735Z,58.80
2019-03-06T22:44:01.090Z,53.80
2019-03-06T22:46:30.537Z,54.93
2019-03-06T22:49:06.933Z,55.48
2019-03-06T22:51:36.442Z,53.80
2019-03-06T22:54:12.136Z,51.28
2019-03-06T22:56:48.481Z,54.48
2019-03-06T22:59:17.918Z,57.38
2019-03-06T23:01:54.229Z,54.83
2019-03-06T23:04:23.796Z,54.20
2019-03-06T23:06:59.511Z,56.65
2019-03-06T23:09:35.097Z,55.70
2019-03-06T23:12:11.117Z,55.17
2019-03-06T23:14:46.707Z,54.83
2019-03-06T23:17:23.174Z,49.55
2019-03-06T23:19:59.482Z,53.92
2019-03-06T23:22:35.990Z,49.55
2019-03-06T23:25:14.110Z,59.98
2019-03-06T23:27:50.007Z,53.15
2019-03-06T23:30:19.652Z,50.67
2019-03-06T23:32:55.583Z,49.55
2019-03-06T23:35:25.033Z,50.95
2019-03-06T23:37:54.609Z,53.48
2019-03-06T23:40:31.249Z,54.75
2019-03-06T23:43:14.452Z,51.95
2019-03-06T23:45:50.008Z,52.10
2019-03-06T23:48:25.743Z,52.45
2019-03-06T23:50:55.185Z,53.68
2019-03-06T23:53:32.089Z,51.55
2019-03-06T23:56:08.250Z,49.53
2019-03-06T23:58:37.760Z,54.73
